Terminal Aerodrome Forecast
Issued by NWS

Home | Current Version | Previous Version | Text Only | Print | Product List | Glossary On
Versions: 1 2 3 4 5 6 7 8 9 10 11 12 13 14 15 16 17 18
000
FTUS42 KMLB 051301 AAA
TAFTIX
TAF AMD
KTIX 051301Z 0513/0612 18009KT P6SM SCT020 SCT035
      TEMPO 0513/0514 5SM BR
     FM060400 30005KT P6SM BKN035 OVC060
     FM061000 35004KT P6SM BKN020 OVC040=

USA.gov is the U.S. government's official web portal to all federal, state and local government web resources and services.